Terminal Aerodrome Forecast
Issued by NWS

Home | Current Version | Previous Version | Text Only | Print | Product List | Glossary On
Versions: 1 2 3 4 5 6 7 8 9 10 11 12 13 14 15 16 17 18 19 20 21 22 23
000
FTUS43 KDLH 221809 AAA
TAFBRD
TAF AMD
KBRD 221809Z 2218/2318 30012KT P6SM SCT050
     FM222200 30009KT P6SM SCT050
     FM230800 32004KT 5SM BR SCT080
     FM231400 36008KT P6SM SCT100=

USA.gov is the U.S. government's official web portal to all federal, state and local government web resources and services.